createdAt,value
2019-02-19T00:04:04.132Z,15.73
2019-02-19T00:09:08.023Z,16.13
2019-02-19T00:14:11.708Z,16.17
2019-02-19T00:19:15.485Z,18.33
2019-02-19T00:24:19.225Z,16.97
2019-02-19T00:29:22.910Z,17.23
2019-02-19T00:34:27.839Z,18.13
2019-02-19T00:39:31.619Z,18.97
2019-02-19T00:44:35.334Z,18.90
2019-02-19T00:49:39.025Z,19.17
2019-02-19T00:54:42.747Z,19.20
2019-02-19T00:59:46.430Z,18.40
2019-02-19T01:04:50.101Z,15.83
2019-02-19T01:09:57.057Z,13.03
2019-02-19T01:15:02.613Z,15.07
2019-02-19T01:20:08.284Z,15.87
2019-02-19T01:25:12.204Z,13.60
2019-02-19T01:30:16.002Z,14.33
2019-02-19T01:35:19.702Z,12.70
2019-02-19T01:40:23.393Z,13.27
2019-02-19T01:45:33.888Z,16.10
2019-02-19T01:50:32.637Z,18.97
2019-02-19T01:55:36.708Z,18.90
2019-02-19T02:00:40.496Z,20.97
2019-02-19T02:05:44.167Z,21.63
2019-02-19T02:10:47.815Z,20.33
2019-02-19T02:15:51.593Z,20.33
2019-02-19T02:20:55.347Z,19.60
2019-02-19T02:25:59.053Z,19.50
2019-02-19T02:31:02.818Z,18.77
2019-02-19T02:36:06.571Z,19.23
2019-02-19T02:41:10.271Z,19.20
2019-02-19T02:46:13.913Z,15.67
2019-02-19T02:51:17.687Z,14.23
2019-02-19T02:56:21.487Z,14.83
2019-02-19T03:01:25.259Z,13.80
2019-02-19T03:06:59.834Z,11.77
2019-02-19T03:12:03.608Z,11.70
2019-02-19T03:17:07.365Z,13.67
2019-02-19T03:22:11.123Z,11.40
2019-02-19T03:27:14.878Z,10.70
2019-02-19T03:32:18.529Z,11.03
2019-02-19T03:37:22.268Z,12.27
2019-02-19T03:42:25.999Z,11.30
2019-02-19T03:47:29.695Z,12.83
2019-02-19T03:52:33.677Z,11.03
2019-02-19T03:57:37.353Z,11.50
2019-02-19T04:02:41.032Z,9.90
2019-02-19T04:07:44.736Z,9.20
2019-02-19T04:12:48.411Z,9.17
2019-02-19T04:17:52.175Z,9.50
2019-02-19T04:22:56.248Z,9.10
2019-02-19T04:27:59.889Z,8.00
2019-02-19T04:33:03.667Z,8.93
2019-02-19T04:38:07.385Z,8.57
2019-02-19T04:43:11.125Z,7.13
2019-02-19T04:48:14.891Z,9.03
2019-02-19T04:53:18.692Z,8.37
2019-02-19T04:58:22.394Z,8.23
2019-02-19T05:03:26.071Z,10.00
2019-02-19T05:08:29.761Z,7.90
2019-02-19T05:13:33.434Z,6.60
2019-02-19T05:18:37.100Z,8.63
2019-02-19T05:23:40.823Z,7.57
2019-02-19T05:28:44.485Z,5.80
2019-02-19T05:33:48.442Z,7.30
2019-02-19T05:38:52.331Z,5.60
2019-02-19T05:43:56.072Z,8.00
2019-02-19T05:48:59.828Z,8.10
2019-02-19T05:54:05.241Z,7.43
2019-02-19T05:59:08.973Z,6.83
2019-02-19T06:04:12.635Z,7.30
2019-02-19T06:09:16.434Z,6.63
2019-02-19T06:14:21.790Z,9.77
2019-02-19T06:19:25.688Z,8.50
2019-02-19T06:24:29.374Z,8.30
2019-02-19T06:29:33.069Z,9.23
2019-02-19T06:34:36.783Z,7.60
2019-02-19T06:39:40.768Z,6.73
2019-02-19T06:44:44.606Z,7.47
2019-02-19T06:49:48.547Z,7.90
2019-02-19T06:54:52.480Z,7.80
2019-02-19T06:59:56.182Z,10.63
2019-02-19T07:05:01.954Z,6.90
2019-02-19T07:10:05.920Z,7.33
2019-02-19T07:15:10.000Z,7.33
2019-02-19T07:20:14.308Z,6.23
2019-02-19T07:25:18.177Z,6.67
2019-02-19T07:30:22.247Z,10.30
2019-02-19T07:35:26.048Z,7.57
2019-02-19T07:40:29.880Z,9.00
2019-02-19T07:45:33.584Z,6.90
2019-02-19T07:50:37.326Z,5.80
2019-02-19T07:55:42.270Z,9.57
2019-02-19T08:00:46.023Z,6.40
2019-02-19T08:05:49.746Z,8.20
2019-02-19T08:10:53.531Z,7.90
2019-02-19T08:15:57.371Z,7.07
2019-02-19T08:21:03.462Z,7.30
2019-02-19T08:26:07.254Z,6.13
2019-02-19T08:31:11.042Z,9.10
2019-02-19T08:36:14.753Z,11.00
2019-02-19T08:41:18.533Z,8.03
2019-02-19T08:46:22.404Z,6.30
2019-02-19T08:51:26.412Z,8.40
2019-02-19T08:56:30.461Z,7.73
2019-02-19T09:01:34.143Z,7.20
2019-02-19T09:06:38.017Z,6.33
2019-02-19T09:11:41.771Z,9.17
2019-02-19T09:16:45.509Z,6.43
2019-02-19T09:21:49.239Z,7.90
2019-02-19T09:26:53.619Z,7.70
2019-02-19T09:31:57.395Z,6.53
2019-02-19T09:37:01.098Z,6.90
2019-02-19T09:42:04.909Z,7.40
2019-02-19T09:47:08.768Z,9.23
2019-02-19T09:52:14.047Z,9.10
2019-02-19T09:57:17.870Z,8.70
2019-02-19T10:02:21.683Z,10.93
2019-02-19T10:07:25.416Z,12.50
2019-02-19T10:12:29.315Z,13.57
2019-02-19T10:17:33.295Z,13.90
2019-02-19T10:22:37.009Z,16.53
2019-02-19T10:27:40.861Z,14.90
2019-02-19T10:32:44.761Z,12.87
2019-02-19T10:37:48.442Z,15.60
2019-02-19T10:42:52.287Z,9.80
2019-02-19T10:47:56.037Z,11.73
2019-02-19T10:53:00.009Z,14.30
2019-02-19T10:58:04.179Z,11.57
2019-02-19T11:03:07.959Z,10.43
2019-02-19T11:08:11.679Z,14.00
2019-02-19T11:13:15.578Z,9.30
2019-02-19T11:18:27.858Z,16.00
2019-02-19T11:23:25.070Z,12.93
2019-02-19T11:28:29.574Z,10.13
2019-02-19T11:33:33.624Z,12.17
2019-02-19T11:38:37.399Z,12.13
2019-02-19T11:43:41.071Z,12.87
2019-02-19T11:48:44.776Z,9.33
2019-02-19T11:53:48.777Z,8.53
2019-02-19T11:58:52.679Z,7.70
2019-02-19T12:03:56.927Z,11.20
2019-02-19T12:09:00.601Z,11.20
2019-02-19T12:14:04.410Z,9.77
2019-02-19T12:19:08.183Z,8.60
2019-02-19T12:24:11.894Z,9.57
2019-02-19T12:29:15.616Z,9.23
2019-02-19T12:34:23.616Z,9.87
2019-02-19T12:39:27.350Z,13.70
2019-02-19T12:44:31.498Z,8.87
2019-02-19T12:49:35.183Z,8.90
2019-02-19T12:54:40.203Z,9.10
2019-02-19T12:59:44.055Z,10.03
2019-02-19T13:04:48.730Z,13.23
2019-02-19T13:09:52.527Z,10.50
2019-02-19T13:14:56.340Z,10.10
2019-02-19T13:20:00.031Z,13.60
2019-02-19T13:25:03.819Z,11.90
2019-02-19T13:30:10.607Z,10.57
2019-02-19T13:35:14.589Z,10.30
2019-02-19T13:40:19.676Z,9.33
2019-02-19T13:45:23.450Z,12.50
2019-02-19T13:50:27.632Z,8.03
2019-02-19T13:55:41.515Z,12.97
2019-02-19T14:00:47.182Z,18.63
2019-02-19T14:05:51.065Z,24.53
2019-02-19T14:10:54.861Z,44.50
2019-02-19T14:16:15.809Z,28.30
2019-02-19T14:21:29.792Z,43.53
2019-02-19T14:26:51.305Z,34.90
2019-02-19T14:32:26.510Z,39.57
2019-02-19T14:37:55.466Z,38.80
2019-02-19T14:43:21.776Z,24.63
2019-02-19T14:48:53.841Z,27.60
2019-02-19T14:54:09.873Z,22.60
2019-02-19T14:59:47.897Z,19.17
2019-02-19T15:05:16.978Z,21.43
2019-02-19T15:10:29.415Z,15.97
2019-02-19T15:15:58.068Z,13.97
2019-02-19T15:21:13.512Z,14.87
2019-02-19T15:26:54.675Z,15.43
2019-02-19T15:32:20.619Z,12.30
2019-02-19T15:37:48.329Z,13.63
2019-02-19T15:43:00.143Z,9.83
2019-02-19T15:48:19.487Z,8.77
2019-02-19T15:53:36.670Z,11.30
2019-02-19T15:58:59.464Z,8.50
2019-02-19T16:04:11.757Z,9.27
2019-02-19T16:09:33.547Z,9.07
2019-02-19T16:14:42.856Z,7.67
2019-02-19T16:19:57.034Z,8.77
2019-02-19T16:25:19.263Z,7.00
2019-02-19T16:30:47.051Z,8.90
2019-02-19T16:35:59.747Z,5.60
2019-02-19T16:41:35.311Z,5.13
2019-02-19T16:46:48.222Z,7.20
2019-02-19T16:51:56.380Z,9.73
2019-02-19T16:57:18.230Z,8.07
2019-02-19T17:02:57.922Z,5.73
2019-02-19T17:08:19.340Z,6.50
2019-02-19T17:13:42.191Z,5.23
2019-02-19T17:19:08.347Z,7.07
2019-02-19T17:24:34.589Z,4.73
2019-02-19T17:30:14.053Z,7.57
2019-02-19T17:35:27.941Z,6.80
2019-02-19T17:40:59.263Z,5.37
2019-02-19T17:46:21.813Z,5.00
2019-02-19T17:51:50.580Z,4.80
2019-02-19T17:57:28.860Z,6.43
2019-02-19T18:02:42.133Z,4.97
2019-02-19T18:08:01.620Z,4.63
2019-02-19T18:13:36.790Z,5.00
2019-02-19T18:18:55.565Z,7.97
2019-02-19T18:23:59.261Z,8.17
2019-02-19T18:29:03.139Z,6.40
2019-02-19T18:34:07.064Z,10.73
2019-02-19T18:39:10.887Z,6.60
2019-02-19T18:44:14.590Z,5.60
2019-02-19T18:49:18.519Z,8.00
2019-02-19T18:54:22.290Z,7.50
2019-02-19T18:59:26.061Z,9.00
2019-02-19T19:04:29.784Z,6.47
2019-02-19T19:09:33.514Z,7.90
2019-02-19T19:14:37.371Z,7.97
2019-02-19T19:19:41.422Z,9.07
2019-02-19T19:24:45.565Z,9.17
2019-02-19T19:29:49.264Z,8.50
2019-02-19T19:34:53.049Z,7.87
2019-02-19T19:39:56.865Z,8.87
2019-02-19T19:45:00.675Z,8.57
2019-02-19T19:50:04.510Z,7.73
2019-02-19T19:55:08.419Z,8.73
2019-02-19T20:00:12.167Z,8.93
2019-02-19T20:05:16.065Z,11.33
2019-02-19T20:10:19.834Z,9.07
2019-02-19T20:15:23.589Z,10.00
2019-02-19T20:20:28.281Z,9.80
2019-02-19T20:25:32.371Z,8.53
2019-02-19T20:30:36.178Z,11.40
2019-02-19T20:35:40.088Z,9.47
2019-02-19T20:40:45.963Z,9.57
2019-02-19T20:45:49.948Z,9.27
2019-02-19T20:50:55.893Z,7.97
2019-02-19T20:55:59.991Z,10.40
2019-02-19T21:01:03.915Z,9.20
2019-02-19T21:06:07.773Z,10.00
2019-02-19T21:11:11.850Z,10.40
2019-02-19T21:16:15.757Z,8.40
2019-02-19T21:21:19.444Z,12.97
2019-02-19T21:26:28.105Z,9.90
2019-02-19T21:31:32.720Z,9.00
2019-02-19T21:36:36.492Z,10.33
2019-02-19T21:41:40.193Z,8.47
2019-02-19T21:46:44.043Z,11.10
2019-02-19T21:51:53.934Z,10.27
2019-02-19T21:56:53.356Z,13.00
2019-02-19T22:01:57.176Z,11.97
2019-02-19T22:07:04.229Z,10.13
2019-02-19T22:12:08.269Z,11.57
2019-02-19T22:17:12.236Z,11.03
2019-02-19T22:22:18.203Z,10.53
2019-02-19T22:27:22.210Z,10.37
2019-02-19T22:32:26.073Z,10.50
2019-02-19T22:37:29.849Z,11.23
2019-02-19T22:42:33.603Z,8.70
2019-02-19T22:47:39.023Z,10.03
2019-02-19T22:52:43.065Z,8.50
2019-02-19T22:57:47.074Z,8.20
2019-02-19T23:02:50.869Z,10.73
2019-02-19T23:07:54.835Z,13.80
2019-02-19T23:12:58.890Z,16.70
2019-02-19T23:18:02.622Z,18.57
2019-02-19T23:23:06.505Z,22.07
2019-02-19T23:28:10.304Z,21.90
2019-02-19T23:33:14.156Z,37.00
2019-02-19T23:38:17.925Z,46.77
2019-02-19T23:43:21.635Z,59.70
2019-02-19T23:48:25.350Z,60.20
2019-02-19T23:53:29.097Z,57.00
2019-02-19T23:58:32.794Z,50.93
